Time;durP1;ratioP1;P1;durP2;ratioP2;P2;SDS_P1;SDS_P2;PMS_P1;PMS_P2;Temp;Humidity;BMP_temperature;BMP_pressure;BME280_temperature;BME280_humidity;BME280_pressure;Samples;Min_cycle;Max_cycle;Signal;HPM_P1;HPM_P2
2021/01/24 00:00:25;;;;;;;11.80;4.43;;;;;;;1.09;74.50;98885.03;5032165;28;20034;-77
2021/01/24 00:02:51;;;;;;;7.93;3.53;;;;;;;0.99;74.08;98862.25;5032061;28;20040;-77
2021/01/24 00:05:16;;;;;;;11.55;3.95;;;;;;;1.08;74.14;98880.78;5032360;28;20108;-77
2021/01/24 00:07:42;;;;;;;10.20;3.97;;;;;;;1.20;74.57;98872.34;5031802;28;20036;-76
2021/01/24 00:10:09;;;;;;;9.70;3.65;;;;;;;1.19;74.12;98866.34;5032981;28;20057;-76
2021/01/24 00:12:34;;;;;;;10.52;3.95;;;;;;;1.09;73.97;98862.59;5031776;28;20490;-76
2021/01/24 00:15:00;;;;;;;11.98;4.45;;;;;;;1.22;74.24;98880.03;5031420;28;20029;-76
2021/01/24 00:17:25;;;;;;;7.70;3.60;;;;;;;1.21;74.75;98873.22;5031649;28;20029;-76
2021/01/24 00:19:50;;;;;;;7.80;3.60;;;;;;;1.22;74.73;98880.84;5031924;28;20030;-75
2021/01/24 00:22:16;;;;;;;5.68;3.50;;;;;;;1.15;74.13;98869.19;5031513;28;20025;-75
2021/01/24 00:24:41;;;;;;;14.07;4.97;;;;;;;0.96;73.39;98869.34;5031808;28;20030;-76
2021/01/24 00:27:06;;;;;;;12.68;5.20;;;;;;;1.00;74.27;98865.66;5031541;28;20051;-75
2021/01/24 00:29:32;;;;;;;10.75;4.88;;;;;;;0.84;73.70;98857.06;5031686;28;20387;-76
2021/01/24 00:31:58;;;;;;;8.13;5.30;;;;;;;0.92;74.23;98857.50;5031623;28;20036;-76
2021/01/24 00:34:23;;;;;;;11.48;5.88;;;;;;;0.89;73.72;98855.91;5031149;28;20116;-76
2021/01/24 00:36:49;;;;;;;13.27;4.60;;;;;;;0.78;73.46;98853.06;5031936;28;20047;-76
2021/01/24 00:39:14;;;;;;;11.15;4.88;;;;;;;0.63;74.36;98867.59;5032373;28;20025;-76
2021/01/24 00:41:39;;;;;;;12.45;4.90;;;;;;;0.73;73.30;98861.06;5031573;28;20071;-76
2021/01/24 00:44:05;;;;;;;7.13;4.18;;;;;;;0.86;74.00;98861.25;5031913;28;20040;-76
2021/01/24 00:46:30;;;;;;;10.75;5.30;;;;;;;0.95;74.34;98865.09;5031681;28;20376;-75
2021/01/24 00:48:56;;;;;;;10.48;5.05;;;;;;;1.03;74.21;98862.09;5031790;28;20537;-76
2021/01/24 00:51:21;;;;;;;7.68;4.63;;;;;;;1.06;74.43;98857.59;5030803;28;20026;-76
2021/01/24 00:53:46;;;;;;;10.68;5.07;;;;;;;1.05;73.86;98866.28;5031766;28;20151;-77
2021/01/24 00:56:12;;;;;;;10.80;5.38;;;;;;;1.10;74.23;98866.00;5031298;28;20501;-77
2021/01/24 00:58:38;;;;;;;13.98;5.25;;;;;;;1.19;73.76;98861.19;5031692;28;20468;-77
2021/01/24 01:01:03;;;;;;;10.10;6.15;;;;;;;0.76;74.18;98855.72;5031141;28;20037;-77
2021/01/24 01:03:29;;;;;;;12.93;5.70;;;;;;;0.77;75.45;98859.97;5031912;28;20025;-77
2021/01/24 01:05:54;;;;;;;11.23;4.75;;;;;;;1.03;74.74;98855.19;5030890;28;20033;-76
2021/01/24 01:08:19;;;;;;;16.17;6.10;;;;;;;1.15;74.38;98853.69;5031293;28;20036;-77
2021/01/24 01:10:45;;;;;;;15.85;5.53;;;;;;;1.22;74.01;98843.84;5031267;28;20468;-77
2021/01/24 01:13:11;;;;;;;9.73;4.47;;;;;;;1.29;73.51;98845.19;5030015;28;20037;-77
2021/01/24 01:15:36;;;;;;;12.43;5.00;;;;;;;1.28;73.64;98835.75;5030897;28;20025;-77
2021/01/24 01:18:03;;;;;;;7.85;4.70;;;;;;;1.28;73.01;98839.16;5031423;28;20026;-77
2021/01/24 01:20:28;;;;;;;8.13;4.22;;;;;;;1.01;72.48;98815.66;5030587;28;20033;-76
2021/01/24 01:22:54;;;;;;;9.13;4.65;;;;;;;1.17;72.07;98829.41;5031330;28;20393;-77
2021/01/24 01:25:20;;;;;;;9.55;4.07;;;;;;;1.11;73.22;98823.75;5030882;28;20029;-77
2021/01/24 01:27:45;;;;;;;9.73;4.85;;;;;;;0.91;71.06;98819.63;5031478;28;20029;-77
2021/01/24 01:30:11;;;;;;;7.95;4.07;;;;;;;0.70;73.75;98826.81;5033202;28;20043;-77
2021/01/24 01:32:36;;;;;;;7.93;4.35;;;;;;;0.65;74.64;98821.84;5035377;28;20079;-76
2021/01/24 01:35:03;;;;;;;11.82;5.85;;;;;;;0.59;74.93;98801.53;5034406;28;20499;-77
2021/01/24 01:37:29;;;;;;;9.00;4.47;;;;;;;0.96;75.04;98812.47;5034745;28;20106;-76
2021/01/24 01:39:55;;;;;;;11.73;4.60;;;;;;;0.79;74.43;98809.06;5033633;28;20018;-76
2021/01/24 01:42:20;;;;;;;7.40;4.22;;;;;;;1.06;74.00;98816.22;5035155;28;20032;-76
2021/01/24 01:44:46;;;;;;;5.78;4.03;;;;;;;1.10;73.88;98809.97;5034563;28;20030;-77
2021/01/24 01:47:16;;;;;;;10.90;4.78;;;;;;;1.25;74.12;98812.66;5035094;28;20036;-76
2021/01/24 01:49:41;;;;;;;9.65;4.32;;;;;;;1.36;72.84;98831.84;5034536;28;20025;-77
2021/01/24 01:52:07;;;;;;;11.20;4.88;;;;;;;1.32;74.24;98804.47;5034625;28;20033;-77
2021/01/24 01:54:32;;;;;;;14.10;4.18;;;;;;;1.36;73.48;98816.31;5033989;28;20051;-77
2021/01/24 01:56:59;;;;;;;8.85;3.83;;;;;;;1.27;73.35;98795.31;5034789;28;20468;-77
2021/01/24 01:59:24;;;;;;;6.28;3.95;;;;;;;1.18;74.27;98784.56;5033965;28;20029;-77
2021/01/24 02:02:10;;;;;;;8.38;3.88;;;;;;;1.45;74.02;98809.78;5034605;28;20037;-77
2021/01/24 02:04:55;;;;;;;12.00;5.28;;;;;;;1.39;73.87;98797.19;5034097;28;20476;-76
2021/01/24 02:07:27;;;;;;;13.68;4.68;;;;;;;1.38;74.71;98782.59;5034313;28;20029;-76
2021/01/24 02:09:58;;;;;;;7.20;4.53;;;;;;;1.45;73.41;98793.44;5035020;28;20029;-77
2021/01/24 02:12:45;;;;;;;12.85;5.18;;;;;;;1.63;73.18;98791.56;5034948;28;20030;-77
2021/01/24 02:15:16;;;;;;;13.45;5.28;;;;;;;1.40;73.39;98775.56;5054864;28;20483;-77
2021/01/24 02:17:52;;;;;;;15.82;4.90;;;;;;;1.55;73.63;98781.66;5037846;28;20021;-76
2021/01/24 02:20:37;;;;;;;7.95;4.57;;;;;;;1.58;73.35;98786.66;5034356;28;20025;-77
2021/01/24 02:23:03;;;;;;;8.05;4.32;;;;;;;1.38;73.63;98785.19;5033970;28;20071;-77
2021/01/24 02:25:53;;;;;;;9.40;4.38;;;;;;;1.49;73.14;98785.41;5034267;28;20027;-76
2021/01/24 02:28:50;;;;;;;13.75;4.70;;;;;;;1.54;73.26;98780.81;5014466;28;20399;-77
2021/01/24 02:31:17;;;;;;;8.80;4.07;;;;;;;1.52;73.40;98782.66;5017799;28;20071;-76
2021/01/24 02:33:44;;;;;;;6.60;3.97;;;;;;;1.67;74.21;98801.63;5034015;28;20061;-76
2021/01/24 02:36:11;;;;;;;8.98;4.28;;;;;;;1.68;73.78;98799.88;5031624;28;20053;-76
2021/01/24 02:38:39;;;;;;;9.05;4.15;;;;;;;1.69;73.99;98802.38;5034091;28;20061;-77
2021/01/24 02:41:08;;;;;;;5.72;3.88;;;;;;;1.73;74.26;98793.53;5032809;28;20025;-77
2021/01/24 02:43:35;;;;;;;7.90;4.18;;;;;;;1.74;74.01;98795.19;5034144;28;20092;-77
2021/01/24 02:46:01;;;;;;;11.07;5.97;;;;;;;1.74;73.71;98786.63;5033532;28;20026;-77
2021/01/24 02:48:27;;;;;;;10.68;4.28;;;;;;;1.85;74.18;98791.97;5034057;28;20034;-76
2021/01/24 02:50:52;;;;;;;7.90;4.13;;;;;;;1.89;73.87;98780.53;5033006;28;20083;-75
2021/01/24 02:53:19;;;;;;;14.40;4.78;;;;;;;1.92;73.68;98777.78;5033783;28;20026;-76
2021/01/24 02:55:45;;;;;;;5.95;4.00;;;;;;;1.96;73.71;98773.25;5033429;28;20036;-76
2021/01/24 02:58:12;;;;;;;12.70;4.72;;;;;;;1.95;73.07;98751.69;5033791;28;20096;-76
2021/01/24 03:00:37;;;;;;;8.00;4.18;;;;;;;2.00;73.81;98758.38;5032774;28;20021;-76
2021/01/24 03:03:03;;;;;;;6.15;3.85;;;;;;;1.97;73.87;98749.88;5033853;28;20353;-75
2021/01/24 03:05:28;;;;;;;8.35;3.60;;;;;;;1.95;74.13;98746.50;5032557;28;20044;-76
2021/01/24 03:07:54;;;;;;;9.07;3.55;;;;;;;1.97;73.71;98749.88;5033134;28;20055;-76
2021/01/24 03:10:21;;;;;;;9.23;3.85;;;;;;;1.71;73.35;98738.44;5034053;28;20028;-76
2021/01/24 03:13:04;;;;;;;10.75;4.82;;;;;;;1.59;72.83;98749.50;5031943;28;20029;-76
2021/01/24 03:15:30;;;;;;;11.57;3.40;;;;;;;1.34;73.35;98743.16;5032631;28;20084;-75
2021/01/24 03:17:58;;;;;;;5.10;3.17;;;;;;;1.40;74.30;98723.84;5032293;28;20029;-76
2021/01/24 03:20:26;;;;;;;13.40;3.63;;;;;;;1.63;73.59;98719.13;5032891;28;20124;-75
2021/01/24 03:22:53;;;;;;;7.47;3.05;;;;;;;1.67;73.90;98702.50;5031557;28;20028;-76
2021/01/24 03:25:20;;;;;;;6.28;3.17;;;;;;;1.78;73.86;98697.53;5033156;28;20033;-76
2021/01/24 03:27:47;;;;;;;8.18;3.35;;;;;;;1.90;74.50;98711.50;5032267;28;20576;-76
2021/01/24 03:30:13;;;;;;;5.80;3.17;;;;;;;1.80;74.72;98682.75;5032906;28;20380;-75
2021/01/24 03:32:38;;;;;;;6.40;3.63;;;;;;;1.85;74.23;98693.63;5032672;28;20022;-76
2021/01/24 03:35:05;;;;;;;7.60;3.33;;;;;;;1.71;73.73;98691.03;5032574;28;20022;-76
2021/01/24 03:37:31;;;;;;;10.75;3.28;;;;;;;1.53;74.40;98693.78;5032260;28;20043;-76
2021/01/24 03:39:56;;;;;;;8.93;4.07;;;;;;;1.37;74.03;98686.09;5032750;28;20117;-76
2021/01/24 03:42:21;;;;;;;10.07;3.50;;;;;;;1.64;74.06;98684.56;5032512;28;20071;-75
2021/01/24 03:44:47;;;;;;;11.60;4.10;;;;;;;1.76;73.61;98679.50;5032804;28;20464;-75
2021/01/24 03:47:12;;;;;;;11.77;3.67;;;;;;;1.75;74.11;98674.41;5032417;28;20030;-76
2021/01/24 03:49:39;;;;;;;6.45;3.40;;;;;;;1.95;74.15;98694.75;5032048;28;20036;-75
2021/01/24 03:52:04;;;;;;;6.32;3.05;;;;;;;1.96;73.99;98680.91;5031966;28;20048;-76
2021/01/24 03:54:29;;;;;;;5.97;2.60;;;;;;;1.99;73.72;98687.63;5032010;28;20025;-76
2021/01/24 03:56:55;;;;;;;7.20;2.97;;;;;;;2.01;72.64;98677.19;5032067;28;20079;-76
2021/01/24 03:59:20;;;;;;;5.75;3.03;;;;;;;1.97;74.01;98671.38;5031203;28;20095;-75
2021/01/24 04:01:46;;;;;;;15.20;3.75;;;;;;;2.03;73.34;98670.16;5032994;28;20018;-76
2021/01/24 04:04:11;;;;;;;8.02;2.65;;;;;;;2.12;74.08;98654.09;5031773;28;20029;-77
2021/01/24 04:06:36;;;;;;;4.45;2.30;;;;;;;2.03;73.76;98641.69;5032591;28;20105;-77
2021/01/24 04:09:02;;;;;;;4.60;2.65;;;;;;;2.15;73.22;98656.47;5031929;28;20033;-77
2021/01/24 04:11:29;;;;;;;5.93;2.17;;;;;;;2.20;72.36;98651.03;5032913;28;20044;-77
2021/01/24 04:13:55;;;;;;;7.70;2.83;;;;;;;2.23;72.66;98656.81;5031725;28;20057;-77
2021/01/24 04:16:20;;;;;;;9.00;3.78;;;;;;;2.35;73.75;98650.91;5032389;28;20110;-77
2021/01/24 04:18:45;;;;;;;12.65;2.70;;;;;;;2.32;72.76;98650.25;5031499;28;20025;-76
2021/01/24 04:21:11;;;;;;;5.97;1.88;;;;;;;2.39;72.56;98643.78;5032244;28;20028;-77
2021/01/24 04:23:36;;;;;;;3.78;1.80;;;;;;;2.46;72.71;98647.63;5031899;28;20033;-76
2021/01/24 04:26:02;;;;;;;4.65;2.38;;;;;;;2.57;72.60;98634.84;5032313;28;20459;-77
2021/01/24 04:28:27;;;;;;;5.85;2.92;;;;;;;2.57;72.53;98626.25;5031848;28;20083;-76
2021/01/24 04:30:52;;;;;;;7.32;2.90;;;;;;;2.66;71.99;98611.84;5032142;28;20459;-76
2021/01/24 04:33:18;;;;;;;7.45;2.63;;;;;;;2.83;70.20;98610.78;5031057;28;20060;-76
2021/01/24 04:35:43;;;;;;;4.28;2.75;;;;;;;2.71;70.65;98599.44;5032556;28;20064;-76
2021/01/24 04:38:09;;;;;;;8.63;2.80;;;;;;;2.68;71.97;98603.03;5031941;28;20125;-76
2021/01/24 04:40:34;;;;;;;3.85;2.25;;;;;;;2.73;72.03;98597.59;5032000;28;20057;-77
2021/01/24 04:42:59;;;;;;;10.35;3.28;;;;;;;2.88;70.00;98590.56;5030999;28;20025;-76
2021/01/24 04:45:25;;;;;;;6.20;2.53;;;;;;;2.83;70.63;98587.47;5031848;28;20105;-75
2021/01/24 04:47:51;;;;;;;8.15;2.50;;;;;;;2.82;70.23;98572.81;5031176;28;20029;-76
2021/01/24 04:50:18;;;;;;;8.05;5.55;;;;;;;2.90;69.57;98574.00;5031989;28;20021;-76
2021/01/24 04:52:44;;;;;;;7.65;3.38;;;;;;;2.82;70.28;98570.22;5031027;28;20103;-75
2021/01/24 04:55:11;;;;;;;7.28;3.22;;;;;;;2.88;70.02;98565.47;5031884;28;20507;-75
2021/01/24 04:57:36;;;;;;;6.90;3.20;;;;;;;2.84;69.76;98566.59;5026748;28;20496;-75
2021/01/24 05:00:05;;;;;;;11.68;3.20;;;;;;;2.86;69.92;98564.72;5017970;28;20027;-75
2021/01/24 05:02:30;;;;;;;19.02;3.60;;;;;;;3.00;69.96;98558.63;5031020;28;20495;-75
2021/01/24 05:04:55;;;;;;;5.82;2.60;;;;;;;3.16;68.86;98554.09;5031471;28;20183;-76
2021/01/24 05:07:21;;;;;;;8.32;2.75;;;;;;;3.21;67.66;98545.19;5031275;28;20120;-75
2021/01/24 05:09:47;;;;;;;6.43;2.30;;;;;;;3.23;68.94;98543.31;5032169;28;20017;-76
2021/01/24 05:12:13;;;;;;;6.53;2.38;;;;;;;3.27;67.48;98539.59;5029524;28;20079;-75
2021/01/24 05:14:39;;;;;;;5.93;2.60;;;;;;;3.31;67.96;98541.03;5031548;28;20034;-76
2021/01/24 05:17:05;;;;;;;8.95;2.33;;;;;;;3.27;67.61;98524.84;5026425;28;20018;-76
2021/01/24 05:19:33;;;;;;;7.30;2.85;;;;;;;3.29;67.41;98522.97;5011787;28;20030;-75
2021/01/24 05:21:59;;;;;;;12.02;2.60;;;;;;;3.35;67.40;98538.13;5019343;28;20033;-75
2021/01/24 05:24:25;;;;;;;6.93;2.13;;;;;;;3.11;68.99;98525.06;5031442;28;20065;-76
2021/01/24 05:26:50;;;;;;;5.82;2.28;;;;;;;3.36;68.09;98523.41;5030677;28;20064;-76
2021/01/24 05:29:23;;;;;;;6.07;2.22;;;;;;;3.47;68.82;98527.84;5031449;28;20036;-76
2021/01/24 05:31:49;;;;;;;7.68;2.63;;;;;;;3.24;68.83;98509.50;5030741;28;20034;-78
2021/01/24 05:34:16;;;;;;;7.18;2.33;;;;;;;3.31;69.23;98518.50;5031405;28;20037;-76
2021/01/24 05:36:46;;;;;;;6.15;2.15;;;;;;;3.44;69.06;98515.09;5030963;28;20044;-77
2021/01/24 05:39:12;;;;;;;10.23;2.80;;;;;;;3.32;70.11;98516.75;5011692;28;20036;-76
2021/01/24 05:41:38;;;;;;;4.22;1.77;;;;;;;3.40;70.09;98524.00;5015899;28;20029;-77
2021/01/24 05:44:12;;;;;;;9.80;2.55;;;;;;;3.42;71.34;98524.75;5031365;28;20113;-77
2021/01/24 05:46:37;;;;;;;7.35;2.60;;;;;;;3.41;70.55;98516.13;5030645;28;20025;-77
2021/01/24 05:49:03;;;;;;;7.78;2.13;;;;;;;3.22;72.71;98518.31;5031403;28;20448;-77
2021/01/24 05:51:29;;;;;;;5.05;2.55;;;;;;;3.32;72.43;98515.00;5030761;28;20033;-77
2021/01/24 05:53:56;;;;;;;7.65;2.35;;;;;;;3.40;72.69;98511.03;5031201;28;20483;-77
2021/01/24 05:56:22;;;;;;;7.32;2.92;;;;;;;3.16;72.79;98517.81;5030938;28;20079;-77
2021/01/24 05:58:59;;;;;;;5.50;2.58;;;;;;;3.23;73.11;98522.56;5031138;28;20033;-77
2021/01/24 06:01:26;;;;;;;6.70;2.83;;;;;;;3.10;73.41;98515.63;5030292;28;20025;-77
2021/01/24 06:03:57;;;;;;;5.43;2.58;;;;;;;2.91;74.47;98521.22;5030857;28;20372;-78
2021/01/24 06:06:22;;;;;;;6.63;2.92;;;;;;;2.91;74.13;98508.25;5031001;28;20052;-77
2021/01/24 06:08:48;;;;;;;8.20;2.75;;;;;;;2.96;73.86;98503.59;5031079;28;20057;-78
2021/01/24 06:11:16;;;;;;;5.78;2.80;;;;;;;2.89;74.55;98499.75;5030974;28;20032;-78
2021/01/24 06:13:45;;;;;;;10.43;3.15;;;;;;;2.79;74.45;98498.69;5028258;28;20072;-78
2021/01/24 06:16:17;;;;;;;8.68;3.17;;;;;;;2.72;73.55;98469.75;5031071;28;20024;-78
2021/01/24 06:18:51;;;;;;;7.93;3.03;;;;;;;2.76;74.92;98485.94;5033928;28;20467;-77
2021/01/24 06:21:30;;;;;;;6.07;2.70;;;;;;;2.79;74.09;98477.97;5033797;28;20029;-77
2021/01/24 06:24:02;;;;;;;4.30;2.42;;;;;;;2.82;74.02;98471.75;5034264;28;20484;-78
2021/01/24 06:26:28;;;;;;;;;;;;;;;2.96;74.45;98480.25;5034383;28;20538;-77
2021/01/24 06:29:00;;;;;;;7.90;3.60;;;;;;;2.67;75.15;98482.19;5034369;28;19927;-78
2021/01/24 06:31:26;;;;;;;5.85;2.97;;;;;;;2.81;75.60;98472.69;5032846;28;20555;-77
2021/01/24 06:33:52;;;;;;;5.32;3.05;;;;;;;2.84;75.11;98475.06;5033779;28;20124;-77
2021/01/24 06:36:19;;;;;;;4.60;2.97;;;;;;;2.95;74.86;98472.56;5034243;28;20029;-77
2021/01/24 06:38:55;;;;;;;10.63;3.05;;;;;;;2.92;74.71;98489.19;5034275;28;20025;-77
2021/01/24 06:41:46;;;;;;;7.47;2.47;;;;;;;2.78;75.10;98477.16;5034214;28;20028;-77
2021/01/24 06:44:33;;;;;;;45.70;5.93;;;;;;;2.76;76.52;98481.59;5034128;28;20045;-77
2021/01/24 06:46:59;;;;;;;37.47;3.72;;;;;;;2.60;76.98;98477.53;5033865;28;20034;-77
2021/01/24 06:49:54;;;;;;;4.57;2.67;;;;;;;2.75;76.37;98479.94;5033830;28;20052;-77
2021/01/24 06:52:23;;;;;;;4.88;2.95;;;;;;;2.82;76.18;98469.97;5020752;28;20095;-77
2021/01/24 06:54:50;;;;;;;4.68;2.72;;;;;;;2.81;76.24;98459.72;5034023;28;20036;-77
2021/01/24 06:57:17;;;;;;;5.93;2.78;;;;;;;2.91;75.81;98465.94;5033725;28;20514;-77
2021/01/24 06:59:43;;;;;;;5.63;2.58;;;;;;;2.88;76.10;98461.78;5033742;28;20395;-77
2021/01/24 07:02:21;;;;;;;3.78;2.45;;;;;;;2.91;76.22;98466.75;5033540;28;20025;-77
2021/01/24 07:05:12;;;;;;;3.10;2.30;;;;;;;2.72;76.87;98461.97;5033687;28;20017;-77
2021/01/24 07:07:41;;;;;;;3.78;2.10;;;;;;;2.98;76.40;98456.81;5033522;28;20111;-77
2021/01/24 07:10:30;;;;;;;2.72;1.63;;;;;;;3.08;75.70;98451.81;5034092;28;20030;-77
2021/01/24 07:12:56;;;;;;;2.08;1.88;;;;;;;3.07;75.11;98447.59;5031889;28;20026;-77
2021/01/24 07:15:22;;;;;;;3.33;1.98;;;;;;;3.04;75.66;98442.59;5033623;28;20399;-77
2021/01/24 07:17:59;;;;;;;2.03;1.65;;;;;;;3.00;74.92;98438.56;5033374;28;20033;-77
2021/01/24 07:20:25;;;;;;;1.55;1.40;;;;;;;3.15;75.28;98451.28;5033462;28;20017;-77
2021/01/24 07:22:51;;;;;;;2.00;1.60;;;;;;;3.21;75.48;98451.81;5033525;28;20033;-77
2021/01/24 07:25:17;;;;;;;1.48;1.38;;;;;;;3.22;75.41;98438.75;5033388;28;20017;-77
2021/01/24 07:27:44;;;;;;;2.83;2.20;;;;;;;3.16;75.24;98429.63;5033027;28;20534;-77
2021/01/24 07:30:10;;;;;;;2.00;1.80;;;;;;;3.29;75.32;98434.78;5033011;28;20026;-77
2021/01/24 07:32:39;;;;;;;3.30;1.90;;;;;;;3.14;75.22;98420.28;5032581;28;20108;-77
2021/01/24 07:35:04;;;;;;;1.73;1.45;;;;;;;3.32;75.15;98436.34;5032781;28;20036;-79
2021/01/24 07:37:30;;;;;;;1.85;1.65;;;;;;;3.35;75.44;98429.16;5033059;28;20021;-79
2021/01/24 07:39:56;;;;;;;3.63;2.50;;;;;;;3.43;75.40;98430.41;5032982;28;20029;-79
2021/01/24 07:42:21;;;;;;;3.40;2.60;;;;;;;3.32;75.32;98428.56;5033477;28;20057;-79
2021/01/24 07:44:47;;;;;;;2.33;2.10;;;;;;;3.28;75.71;98425.34;5032890;28;20068;-78
2021/01/24 07:47:15;;;;;;;1.98;1.85;;;;;;;3.35;75.30;98423.16;5032401;28;20060;-80
2021/01/24 07:49:40;;;;;;;3.40;2.08;;;;;;;3.40;75.87;98413.28;5034109;28;20491;-80
2021/01/24 07:52:07;;;;;;;3.40;3.10;;;;;;;3.36;74.79;98409.25;5032571;28;20026;-79
2021/01/24 07:54:34;;;;;;;3.88;2.65;;;;;;;3.37;75.89;98416.91;5032345;28;20423;-79
2021/01/24 07:57:00;;;;;;;3.80;2.90;;;;;;;3.29;75.92;98413.22;5032998;28;20053;-78
2021/01/24 07:59:25;;;;;;;3.42;2.42;;;;;;;3.36;75.95;98430.00;5032964;28;20099;-78
2021/01/24 08:01:51;;;;;;;2.60;2.30;;;;;;;3.38;75.43;98435.94;5032552;28;20541;-78
2021/01/24 08:04:17;;;;;;;2.92;2.30;;;;;;;3.26;76.03;98441.94;5032685;28;20135;-78
2021/01/24 08:06:42;;;;;;;1.90;1.73;;;;;;;3.36;75.66;98435.19;5030714;28;20113;-78
2021/01/24 08:09:09;;;;;;;2.38;1.98;;;;;;;3.45;76.19;98431.94;5031884;28;20026;-78
2021/01/24 08:11:35;;;;;;;2.17;1.98;;;;;;;3.43;75.30;98431.22;5012715;22;20141;-82
2021/01/24 08:14:02;;;;;;;2.47;2.20;;;;;;;3.52;75.57;98434.97;4978890;28;20510;-82
2021/01/24 08:16:40;;;;;;;2.78;2.20;;;;;;;3.52;74.95;98430.59;4993106;28;20563;-82
2021/01/24 08:19:10;;;;;;;3.17;2.40;;;;;;;3.50;74.23;98435.06;4981133;28;20030;-82
2021/01/24 08:21:38;;;;;;;2.70;2.17;;;;;;;3.51;74.96;98439.28;4992700;28;20050;-82
2021/01/24 08:24:06;;;;;;;3.60;2.38;;;;;;;3.50;75.14;98432.47;4992964;28;20527;-82
2021/01/24 08:26:37;;;;;;;2.80;2.17;;;;;;;3.62;75.36;98441.16;4974850;28;20405;-82
2021/01/24 08:29:03;;;;;;;3.85;2.28;;;;;;;3.56;75.23;98439.81;4958625;28;20398;-81
2021/01/24 08:31:29;;;;;;;2.33;2.13;;;;;;;3.56;74.91;98432.03;4960965;28;20031;-82
2021/01/24 08:33:55;;;;;;;2.65;2.25;;;;;;;3.63;75.58;98442.78;4963073;28;20471;-82
2021/01/24 08:36:22;;;;;;;4.03;2.50;;;;;;;3.74;75.25;98434.25;4957639;28;20470;-82
2021/01/24 08:38:49;;;;;;;3.47;2.45;;;;;;;3.71;75.18;98435.31;4957231;28;20079;-82
2021/01/24 08:41:16;;;;;;;2.75;2.40;;;;;;;3.79;75.29;98432.16;4955037;28;20485;-82
2021/01/24 08:43:42;;;;;;;3.03;2.72;;;;;;;3.83;75.49;98427.56;4953954;28;20090;-82
2021/01/24 08:46:21;;;;;;;3.30;3.00;;;;;;;3.94;74.74;98427.63;4964117;28;20028;-82
2021/01/24 08:49:06;;;;;;;4.07;3.42;;;;;;;4.06;74.79;98423.31;4954499;28;20027;-82
2021/01/24 08:52:01;;;;;;;3.75;3.10;;;;;;;4.12;74.43;98423.69;4970661;28;20035;-82
2021/01/24 08:54:35;;;;;;;3.47;2.90;;;;;;;4.13;73.70;98430.56;4966263;28;20576;-82
2021/01/24 08:57:13;;;;;;;3.10;2.80;;;;;;;4.08;73.71;98426.63;4956151;28;20050;-82
2021/01/24 08:59:56;;;;;;;2.80;2.40;;;;;;;4.16;74.11;98424.28;4972822;28;20120;-82
2021/01/24 09:02:32;;;;;;;3.38;2.67;;;;;;;4.26;74.08;98427.03;4972103;28;20029;-82
2021/01/24 09:04:58;;;;;;;2.45;2.17;;;;;;;4.26;73.64;98422.66;4973222;28;20027;-82
2021/01/24 09:07:37;;;;;;;3.22;2.42;;;;;;;4.32;73.96;98419.63;4971339;28;20057;-82
2021/01/24 09:12:30;;;;;;;3.17;2.70;;;;;;;4.32;73.33;98422.22;4991730;28;19976;-85
2021/01/24 09:14:55;;;;;;;2.97;2.75;;;;;;;4.36;72.91;98421.06;4993760;28;20034;-86
2021/01/24 09:17:21;;;;;;;3.08;2.78;;;;;;;4.45;73.87;98427.34;4997025;28;20076;-86
2021/01/24 09:19:47;;;;;;;3.15;2.45;;;;;;;4.52;73.58;98414.72;5011828;28;20045;-87
2021/01/24 09:22:15;;;;;;;3.15;2.70;;;;;;;4.54;73.53;98412.81;5006811;28;20035;-86
2021/01/24 09:24:40;;;;;;;3.67;3.15;;;;;;;4.58;73.34;98416.84;4991923;28;20034;-86
2021/01/24 09:27:08;;;;;;;3.70;2.75;;;;;;;4.61;73.04;98419.22;4994926;28;20045;-86
2021/01/24 09:29:34;;;;;;;2.53;2.33;;;;;;;4.56;73.18;98411.78;5007233;28;20034;-86
2021/01/24 09:32:00;;;;;;;3.25;2.53;;;;;;;4.62;73.16;98420.91;4994835;28;20033;-85
2021/01/24 09:34:26;;;;;;;2.63;2.00;;;;;;;4.58;73.00;98416.84;5011392;28;20038;-85
2021/01/24 09:36:51;;;;;;;3.03;2.60;;;;;;;4.67;73.10;98423.97;5009812;28;20080;-85
2021/01/24 09:39:17;;;;;;;2.75;2.28;;;;;;;4.79;71.99;98418.78;5011456;28;20034;-86
2021/01/24 09:41:42;;;;;;;2.35;2.08;;;;;;;5.00;71.40;98429.34;5008385;28;20022;-86
2021/01/24 09:44:08;;;;;;;3.33;2.63;;;;;;;4.90;71.34;98424.84;4990747;28;20113;-86
2021/01/24 09:46:34;;;;;;;2.97;2.63;;;;;;;5.01;72.19;98428.38;4974107;28;20046;-86
2021/01/24 09:48:59;;;;;;;3.03;2.30;;;;;;;5.10;72.15;98433.72;4994973;28;20034;-85
2021/01/24 09:51:24;;;;;;;2.92;2.63;;;;;;;5.14;71.18;98426.50;4989165;28;20030;-85
2021/01/24 09:53:52;;;;;;;2.70;2.38;;;;;;;5.30;72.38;98426.13;5015000;28;20108;-85
2021/01/24 09:56:18;;;;;;;2.63;2.40;;;;;;;5.30;71.61;98423.53;5012893;28;20022;-85
2021/01/24 09:58:43;;;;;;;2.70;2.50;;;;;;;5.27;71.52;98419.41;4995436;28;20026;-85
2021/01/24 10:01:09;;;;;;;2.90;2.70;;;;;;;5.35;71.56;98424.84;4995513;28;20026;-85
2021/01/24 10:03:34;;;;;;;3.45;2.40;;;;;;;5.47;71.64;98433.47;5015020;28;20468;-86
2021/01/24 10:06:00;;;;;;;3.53;2.45;;;;;;;5.56;70.32;98432.72;5012029;28;20393;-85
2021/01/24 10:08:25;;;;;;;3.33;2.60;;;;;;;5.39;70.15;98441.03;4995459;28;20030;-85
2021/01/24 10:10:50;;;;;;;2.80;2.53;;;;;;;5.46;71.37;98452.63;4995591;28;20038;-85
2021/01/24 10:13:16;;;;;;;6.32;2.45;;;;;;;5.34;69.76;98448.38;5011151;28;20499;-85
2021/01/24 10:15:41;;;;;;;2.90;2.58;;;;;;;5.38;71.09;98444.56;5014734;28;20030;-85
2021/01/24 10:18:07;;;;;;;1.40;1.30;;;;;;;5.27;70.09;98444.56;4997612;28;20392;-83
2021/01/24 10:20:33;;;;;;;1.30;1.15;;;;;;;5.27;72.07;98445.44;4994337;28;20550;-85
2021/01/24 10:22:59;;;;;;;1.65;1.55;;;;;;;5.16;71.86;98448.84;4994776;28;20548;-84
2021/01/24 10:25:25;;;;;;;2.72;1.00;;;;;;;5.04;71.79;98439.38;4993570;28;20034;-85
2021/01/24 10:27:50;;;;;;;3.67;1.17;;;;;;;5.29;71.64;98437.47;4992466;28;20096;-85
2021/01/24 10:30:16;;;;;;;1.30;1.20;;;;;;;5.61;71.69;98429.78;5002449;28;20053;-85
2021/01/24 10:32:42;;;;;;;1.20;1.10;;;;;;;5.76;70.93;98432.91;5005197;28;20436;-85
2021/01/24 10:35:08;;;;;;;1.50;1.35;;;;;;;5.90;71.11;98430.03;4995737;28;20166;-85
2021/01/24 10:37:34;;;;;;;2.03;1.67;;;;;;;6.31;70.27;98431.09;4997266;28;20531;-85
2021/01/24 10:40:00;;;;;;;2.70;2.47;;;;;;;6.72;68.65;98426.03;4993204;28;20030;-85
2021/01/24 10:42:25;;;;;;;4.85;2.80;;;;;;;7.52;64.74;98427.03;4983340;28;20030;-84
2021/01/24 10:44:51;;;;;;;3.92;2.72;;;;;;;7.25;67.17;98423.25;4995202;28;20100;-85
2021/01/24 10:47:16;;;;;;;3.47;2.90;;;;;;;7.01;66.88;98428.78;4995324;28;20034;-85
2021/01/24 10:49:42;;;;;;;3.75;2.80;;;;;;;6.86;68.19;98436.13;4996242;28;20025;-85
2021/01/24 10:52:08;;;;;;;2.90;2.60;;;;;;;6.82;67.70;98420.88;5004860;28;20551;-85
2021/01/24 10:54:35;;;;;;;3.72;3.28;;;;;;;6.57;68.55;98429.91;4994263;28;20038;-85
2021/01/24 10:57:01;;;;;;;3.63;3.00;;;;;;;7.03;67.79;98432.09;4991829;28;20069;-86
2021/01/24 10:59:26;;;;;;;2.75;2.50;;;;;;;8.72;62.42;98432.06;4992222;28;20088;-85
2021/01/24 11:01:51;;;;;;;2.53;2.30;;;;;;;9.86;61.88;98430.06;4992679;28;20427;-85
2021/01/24 11:04:17;;;;;;;2.63;2.20;;;;;;;10.80;58.25;98428.78;4993595;28;20135;-85
2021/01/24 11:06:42;;;;;;;1.70;1.60;;;;;;;10.71;55.94;98430.50;4997475;28;20028;-85
2021/01/24 11:09:07;;;;;;;2.03;1.52;;;;;;;9.65;58.22;98426.91;4988904;28;20117;-85
2021/01/24 11:11:33;;;;;;;2.25;1.80;;;;;;;9.39;59.71;98432.00;5017798;23;20128;-79
2021/01/24 11:13:58;;;;;;;2.38;1.77;;;;;;;9.28;59.11;98436.47;5012131;28;20029;-79
2021/01/24 11:16:23;;;;;;;1.70;1.60;;;;;;;8.93;61.22;98426.66;5013312;28;20033;-79
2021/01/24 11:18:49;;;;;;;1.52;1.42;;;;;;;8.95;61.11;98429.97;5013440;28;20021;-80
2021/01/24 11:21:14;;;;;;;1.88;1.73;;;;;;;8.56;60.85;98427.44;4999777;28;20130;-80
2021/01/24 11:23:39;;;;;;;1.98;1.67;;;;;;;8.58;62.71;98428.13;4983230;28;20384;-79
2021/01/24 11:26:05;;;;;;;1.92;1.75;;;;;;;8.60;62.65;98436.63;4993048;28;20026;-80
2021/01/24 11:28:30;;;;;;;1.73;1.60;;;;;;;8.16;63.55;98433.63;4991536;28;20441;-79
2021/01/24 11:30:55;;;;;;;2.33;1.88;;;;;;;8.02;63.50;98434.84;4990384;28;20030;-79
2021/01/24 11:33:21;;;;;;;2.03;1.83;;;;;;;7.76;63.56;98431.94;4973857;28;20118;-81
2021/01/24 11:35:46;;;;;;;2.75;1.50;;;;;;;7.51;64.76;98428.84;4975280;28;20035;-80
2021/01/24 11:38:11;;;;;;;2.00;1.80;;;;;;;7.59;65.92;98428.16;4987024;28;20035;-80
2021/01/24 11:40:37;;;;;;;1.85;1.75;;;;;;;7.29;67.12;98432.47;4977159;28;20073;-80
2021/01/24 11:43:02;;;;;;;3.40;2.38;;;;;;;7.04;66.95;98425.91;4981448;28;20045;-79
2021/01/24 11:45:28;;;;;;;2.30;2.10;;;;;;;6.85;67.04;98433.63;4992402;28;20109;-79